Time;durP1;ratioP1;P1;durP2;ratioP2;P2;SDS_P1;SDS_P2;PMS_P1;PMS_P2;Temp;Humidity;BMP_temperature;BMP_pressure;BME280_temperature;BME280_humidity;BME280_pressure;Samples;Min_cycle;Max_cycle;Signal;HPM_P1;HPM_P2
2022/09/04 00:00:00;;;;;;;8.30;5.50;;;16.20;99.90;;;;;;5083279;28;20038;-64
2022/09/04 00:02:38;;;;;;;6.35;5.43;;;16.20;99.90;;;;;;5087019;28;20054;-64
2022/09/04 00:05:22;;;;;;;9.65;5.35;;;16.10;99.90;;;;;;5083118;28;20389;-64
2022/09/04 00:07:56;;;;;;;8.43;5.90;;;16.20;99.90;;;;;;5083262;28;20685;-64
2022/09/04 00:10:56;;;;;;;6.60;5.65;;;16.10;99.90;;;;;;5081343;28;20035;-64
2022/09/04 00:13:27;;;;;;;7.88;5.93;;;16.10;99.90;;;;;;5079355;28;20079;-64
2022/09/04 00:15:58;;;;;;;9.93;6.35;;;16.10;99.90;;;;;;5084401;28;20032;-64
2022/09/04 00:18:36;;;;;;;9.10;6.57;;;16.00;99.90;;;;;;5085170;28;20081;-64
2022/09/04 00:21:14;;;;;;;8.32;5.68;;;16.00;99.90;;;;;;5086395;28;20024;-64
2022/09/04 00:23:54;;;;;;;6.65;5.82;;;16.00;99.90;;;;;;5082416;28;20016;-64
2022/09/04 00:26:40;;;;;;;8.60;6.45;;;16.00;99.90;;;;;;5085673;28;20044;-64
2022/09/04 00:29:11;;;;;;;8.50;6.55;;;16.00;99.90;;;;;;5083397;28;20478;-64
2022/09/04 00:31:46;;;;;;;14.00;6.05;;;16.00;99.90;;;;;;5084217;28;20117;-64
2022/09/04 00:34:33;;;;;;;12.23;7.47;;;16.00;99.90;;;;;;5083095;28;20089;-63
2022/09/04 00:37:06;;;;;;;9.25;6.53;;;16.00;99.90;;;;;;5084187;28;20512;-64
2022/09/04 00:39:43;;;;;;;11.60;6.80;;;16.00;99.90;;;;;;5084564;28;20401;-64
2022/09/04 00:42:40;;;;;;;10.60;6.55;;;16.00;99.90;;;;;;5082245;28;20024;-64
2022/09/04 00:45:19;;;;;;;9.00;6.55;;;16.00;99.90;;;;;;5082968;28;20028;-64
2022/09/04 00:48:07;;;;;;;8.38;6.07;;;16.00;99.90;;;;;;5085338;28;20060;-64
2022/09/04 00:50:42;;;;;;;10.10;7.05;;;16.10;99.90;;;;;;5084103;28;20052;-63
2022/09/04 00:53:29;;;;;;;9.48;6.35;;;16.10;99.90;;;;;;5085076;28;20028;-64
2022/09/04 00:56:06;;;;;;;9.25;6.13;;;16.00;99.90;;;;;;5085152;28;20031;-64
2022/09/04 00:58:50;;;;;;;9.50;6.43;;;16.00;99.90;;;;;;5082120;28;20059;-64
2022/09/04 01:01:26;;;;;;;10.45;7.22;;;16.00;99.90;;;;;;5082232;28;20371;-64
2022/09/04 01:04:11;;;;;;;9.15;7.32;;;16.00;99.90;;;;;;5085947;28;20106;-64
2022/09/04 01:06:56;;;;;;;10.50;6.78;;;16.00;99.90;;;;;;5082517;28;20028;-64
2022/09/04 01:09:42;;;;;;;10.80;6.82;;;16.00;99.90;;;;;;5085419;28;20498;-64
2022/09/04 01:12:30;;;;;;;9.77;6.65;;;16.00;99.90;;;;;;5083856;28;20024;-64
2022/09/04 01:15:13;;;;;;;13.85;7.78;;;15.90;99.90;;;;;;5082705;28;20032;-64
2022/09/04 01:18:09;;;;;;;9.02;6.82;;;15.90;99.90;;;;;;5081397;28;20108;-64
2022/09/04 01:21:05;;;;;;;11.45;6.95;;;15.90;99.90;;;;;;5086271;28;20084;-64
2022/09/04 01:23:58;;;;;;;10.38;7.22;;;15.90;99.90;;;;;;5087900;28;20012;-64
2022/09/04 01:26:32;;;;;;;10.77;6.95;;;15.80;99.90;;;;;;5084144;28;20086;-64
2022/09/04 01:29:30;;;;;;;11.70;7.07;;;15.80;99.90;;;;;;5087391;28;20020;-64
2022/09/04 01:32:08;;;;;;;13.38;7.25;;;15.80;99.90;;;;;;5088185;28;20024;-64
2022/09/04 01:35:16;;;;;;;9.88;7.70;;;15.80;99.90;;;;;;5087436;28;20028;-63
2022/09/04 01:38:15;;;;;;;12.48;6.95;;;15.70;99.90;;;;;;5081932;28;20402;-65
2022/09/04 01:41:13;;;;;;;9.65;7.28;;;15.70;99.90;;;;;;5084120;28;20554;-64
2022/09/04 01:43:39;;;;;;;13.05;8.52;;;15.70;99.90;;;;;;5082480;28;20047;-64
2022/09/04 01:46:27;;;;;;;11.60;7.70;;;15.70;99.90;;;;;;5087815;28;20477;-64
2022/09/04 01:49:20;;;;;;;13.88;8.27;;;15.60;99.90;;;;;;5088623;28;20020;-64
2022/09/04 01:52:16;;;;;;;9.65;7.63;;;15.60;99.90;;;;;;5087307;28;20397;-64
2022/09/04 01:55:06;;;;;;;11.45;8.18;;;15.50;99.90;;;;;;5081726;28;20028;-65
2022/09/04 01:57:39;;;;;;;17.60;9.35;;;15.50;99.90;;;;;;5085966;28;20023;-64
2022/09/04 02:00:14;;;;;;;11.50;8.27;;;15.50;99.90;;;;;;5087969;28;20457;-64
2022/09/04 02:03:15;;;;;;;15.55;8.65;;;15.50;99.90;;;;;;5086886;28;20027;-64
2022/09/04 02:06:00;;;;;;;17.13;8.52;;;15.50;99.90;;;;;;5087802;28;20028;-64
2022/09/04 02:08:47;;;;;;;13.93;8.65;;;15.50;99.90;;;;;;5087743;28;20446;-65
2022/09/04 02:11:17;;;;;;;12.98;8.68;;;15.40;99.90;;;;;;5088315;28;20020;-64
2022/09/04 02:14:08;;;;;;;14.63;9.68;;;15.40;99.90;;;;;;5086587;28;20024;-64
2022/09/04 02:16:56;;;;;;;17.90;10.18;;;15.30;99.90;;;;;;5083426;28;20125;-64
2022/09/04 02:19:58;;;;;;;16.02;10.77;;;15.30;99.90;;;;;;5088123;28;20028;-64
2022/09/04 02:22:53;;;;;;;16.17;9.43;;;15.30;99.90;;;;;;5083458;28;20394;-63
2022/09/04 02:25:27;;;;;;;13.55;9.88;;;15.30;99.90;;;;;;5083839;28;20048;-64
2022/09/04 02:28:12;;;;;;;;;;;15.30;99.90;;;;;;5088575;28;20055;-64
2022/09/04 02:30:45;;;;;;;19.98;10.07;;;15.30;99.90;;;;;;5085951;28;19915;-64
2022/09/04 02:33:31;;;;;;;16.40;10.25;;;15.30;99.90;;;;;;5086761;28;20017;-64
2022/09/04 02:36:04;;;;;;;17.45;9.93;;;15.30;99.90;;;;;;5086888;28;20126;-64
2022/09/04 02:38:42;;;;;;;14.38;10.00;;;15.30;99.90;;;;;;5083984;28;20035;-64
2022/09/04 02:41:23;;;;;;;15.73;9.93;;;15.20;99.90;;;;;;5086617;28;20059;-64
2022/09/04 02:44:23;;;;;;;16.65;10.13;;;15.20;99.90;;;;;;5082991;28;20028;-64
2022/09/04 02:47:05;;;;;;;17.65;11.05;;;15.20;99.90;;;;;;5082989;28;20039;-64
2022/09/04 02:49:47;;;;;;;15.50;9.60;;;15.20;99.90;;;;;;5085131;28;20043;-64
2022/09/04 02:52:32;;;;;;;16.23;10.95;;;15.10;99.90;;;;;;5083646;28;20110;-64
2022/09/04 02:55:16;;;;;;;16.40;9.65;;;15.10;99.90;;;;;;5074517;28;20028;-65
2022/09/04 02:58:00;;;;;;;19.50;10.13;;;15.10;99.90;;;;;;5097744;28;20031;-64
2022/09/04 03:00:53;;;;;;;16.85;11.07;;;15.10;99.90;;;;;;5093034;22;21105;-53
2022/09/04 03:03:46;;;;;;;19.05;11.55;;;15.00;99.90;;;;;;5057631;28;20116;-52
2022/09/04 03:06:22;;;;;;;19.42;11.07;;;14.90;99.90;;;;;;5064868;28;20029;-54
2022/09/04 03:08:51;;;;;;;19.05;10.93;;;14.90;99.90;;;;;;5064889;28;20047;-55
2022/09/04 03:11:24;;;;;;;15.43;10.05;;;14.90;99.90;;;;;;5079023;28;20387;-56
2022/09/04 03:14:12;;;;;;;16.90;11.27;;;14.90;99.90;;;;;;5083971;28;20064;-55
2022/09/04 03:16:51;;;;;;;17.98;11.60;;;15.00;99.90;;;;;;5086451;28;20371;-57
2022/09/04 03:19:52;;;;;;;20.00;11.10;;;15.00;99.90;;;;;;5085149;28;20063;-54
2022/09/04 03:22:39;;;;;;;18.15;10.35;;;15.00;99.90;;;;;;5086668;28;20033;-57
2022/09/04 03:25:34;;;;;;;18.80;10.63;;;15.00;99.90;;;;;;5084260;28;20043;-56
2022/09/04 03:28:00;;;;;;;18.25;10.55;;;15.00;99.90;;;;;;5081810;28;20031;-54
2022/09/04 03:30:28;;;;;;;23.40;11.77;;;15.00;99.90;;;;;;5085633;28;20032;-54
2022/09/04 03:33:03;;;;;;;19.30;11.85;;;15.00;99.90;;;;;;5080822;28;20849;-55
2022/09/04 03:35:46;;;;;;;20.67;11.32;;;15.00;99.90;;;;;;5084139;28;20027;-54
2022/09/04 03:38:33;;;;;;;20.08;10.98;;;15.00;99.90;;;;;;5084079;28;20028;-54
2022/09/04 03:41:29;;;;;;;19.05;11.10;;;14.90;99.90;;;;;;5086748;28;20078;-53
2022/09/04 03:44:21;;;;;;;22.58;11.23;;;15.00;99.90;;;;;;5082379;28;20103;-56
2022/09/04 03:46:53;;;;;;;19.52;11.45;;;14.90;99.90;;;;;;5082939;28;20107;-57
2022/09/04 03:49:34;;;;;;;17.42;10.45;;;14.90;99.90;;;;;;5081276;28;20073;-57
2022/09/04 03:52:34;;;;;;;18.45;11.23;;;14.90;99.90;;;;;;5084419;28;20036;-54
2022/09/04 03:55:02;;;;;;;21.95;11.80;;;14.90;99.90;;;;;;5053507;28;20036;-55
2022/09/04 03:57:47;;;;;;;20.95;12.13;;;14.90;99.90;;;;;;5085173;28;20417;-57
2022/09/04 04:00:18;;;;;;;18.23;11.05;;;14.90;99.90;;;;;;5083099;28;20028;-55
2022/09/04 04:03:16;;;;;;;17.45;10.85;;;14.90;99.90;;;;;;5086132;28;20028;-57
2022/09/04 04:06:01;;;;;;;19.55;10.23;;;14.90;99.90;;;;;;5084369;28;20821;-57
2022/09/04 04:08:45;;;;;;;17.88;10.90;;;14.90;99.90;;;;;;5084400;28;20115;-57
2022/09/04 04:11:30;;;;;;;18.67;10.07;;;14.90;99.90;;;;;;5085986;28;20028;-58
2022/09/04 04:14:17;;;;;;;17.77;10.00;;;14.90;99.90;;;;;;5080366;28;20024;-57
2022/09/04 04:17:01;;;;;;;22.58;10.45;;;14.90;99.90;;;;;;5085465;28;20394;-58
2022/09/04 04:19:43;;;;;;;20.27;10.57;;;14.90;99.90;;;;;;5084921;28;20035;-57
2022/09/04 04:22:40;;;;;;;20.35;10.30;;;15.00;99.90;;;;;;5085601;28;20114;-55
2022/09/04 04:25:13;;;;;;;19.15;10.73;;;14.90;99.90;;;;;;5083168;28;20035;-56
2022/09/04 04:28:10;;;;;;;17.88;9.95;;;14.90;99.90;;;;;;5085745;28;20036;-55
2022/09/04 04:30:48;;;;;;;18.05;9.20;;;14.90;99.90;;;;;;5067846;28;20032;-56
2022/09/04 04:33:41;;;;;;;16.08;9.88;;;14.80;99.90;;;;;;5083228;28;20024;-57
2022/09/04 04:36:18;;;;;;;18.42;10.55;;;14.80;99.90;;;;;;5079960;28;20020;-56
2022/09/04 04:39:29;;;;;;;18.20;10.90;;;14.70;99.90;;;;;;5084726;28;20060;-54
2022/09/04 04:42:32;;;;;;;16.10;9.80;;;14.70;99.90;;;;;;5082121;28;20048;-56
2022/09/04 04:48:06;;;;;;;16.98;9.75;;;14.60;99.90;;;;;;5084574;28;20043;-54
2022/09/04 04:51:04;;;;;;;18.55;10.32;;;14.60;99.90;;;;;;5085400;28;20547;-54
2022/09/04 04:53:50;;;;;;;18.50;10.02;;;14.60;99.90;;;;;;5087888;28;20067;-55
2022/09/04 04:56:45;;;;;;;21.50;10.55;;;14.60;99.90;;;;;;5087806;28;20036;-56
2022/09/04 04:59:22;;;;;;;19.10;11.43;;;14.60;99.90;;;;;;5087460;28;20663;-54
2022/09/04 05:02:08;;;;;;;17.15;10.70;;;14.60;99.90;;;;;;5084881;28;20036;-57
2022/09/04 05:04:48;;;;;;;19.17;10.93;;;14.60;99.90;;;;;;5084257;28;20718;-57
2022/09/04 05:07:33;;;;;;;17.55;9.68;;;14.60;99.90;;;;;;5085642;28;20043;-54
2022/09/04 05:10:05;;;;;;;17.48;9.32;;;14.60;99.90;;;;;;5087695;28;20024;-57
2022/09/04 05:13:07;;;;;;;16.45;9.82;;;14.70;99.90;;;;;;5083508;28;20081;-55
2022/09/04 05:15:53;;;;;;;19.77;9.60;;;14.70;99.90;;;;;;5087164;28;20035;-57
2022/09/04 05:18:29;;;;;;;22.00;10.45;;;14.70;99.90;;;;;;5085588;28;20385;-55
2022/09/04 05:21:07;;;;;;;18.13;11.32;;;14.80;99.90;;;;;;5084836;28;20023;-57
2022/09/04 05:23:44;;;;;;;14.93;9.05;;;14.80;99.90;;;;;;5089427;28;20056;-55
2022/09/04 05:26:40;;;;;;;18.55;10.18;;;14.80;99.90;;;;;;5087413;28;20024;-55
2022/09/04 05:29:36;;;;;;;15.57;9.98;;;14.80;99.90;;;;;;5086331;28;20481;-57
2022/09/04 05:32:15;;;;;;;18.08;10.90;;;14.90;99.90;;;;;;5086250;28;20751;-54
2022/09/04 05:35:01;;;;;;;17.30;10.52;;;14.90;99.90;;;;;;5085109;28;20032;-54
2022/09/04 05:37:34;;;;;;;16.88;10.93;;;15.00;99.90;;;;;;5089133;28;20016;-57
2022/09/04 05:40:13;;;;;;;16.55;10.77;;;15.00;99.90;;;;;;5085227;28;20045;-57
2022/09/04 05:43:11;;;;;;;14.27;9.95;;;15.00;99.90;;;;;;5089036;28;20024;-57
2022/09/04 05:46:00;;;;;;;18.13;10.23;;;15.00;99.90;;;;;;5035369;28;20032;-57
2022/09/04 05:48:58;;;;;;;17.88;9.77;;;15.10;99.90;;;;;;5088489;28;20051;-57
2022/09/04 05:51:40;;;;;;;17.15;10.07;;;15.10;99.90;;;;;;5085909;28;20027;-56
2022/09/04 05:54:43;;;;;;;17.83;10.05;;;15.10;99.90;;;;;;5086265;28;20045;-56
2022/09/04 05:57:26;;;;;;;16.55;10.60;;;15.20;99.90;;;;;;5082683;28;20024;-56
2022/09/04 06:00:10;;;;;;;19.25;10.77;;;15.20;99.90;;;;;;5083622;28;20047;-56
2022/09/04 06:03:27;;;;;;;17.10;10.65;;;15.30;99.90;;;;;;5084595;28;20059;-56
2022/09/04 06:06:00;;;;;;;18.45;11.10;;;15.30;99.90;;;;;;4976446;28;20035;-56
2022/09/04 06:09:11;;;;;;;17.35;10.52;;;15.40;99.90;;;;;;4978892;28;20106;-57
2022/09/04 06:11:40;;;;;;;16.60;10.43;;;15.40;99.90;;;;;;5059640;28;20093;-57
2022/09/04 06:14:25;;;;;;;15.57;10.30;;;15.50;99.90;;;;;;5087740;28;20035;-55
2022/09/04 06:17:18;;;;;;;17.30;10.65;;;15.50;99.90;;;;;;5082567;28;20024;-58
2022/09/04 06:20:01;;;;;;;19.38;10.63;;;15.70;99.90;;;;;;5087365;28;20032;-57
2022/09/04 06:22:44;;;;;;;18.45;11.00;;;15.70;99.90;;;;;;5082943;28;20097;-57
2022/09/04 06:25:41;;;;;;;20.65;11.60;;;15.70;99.90;;;;;;5087402;28;20027;-58
2022/09/04 06:28:30;;;;;;;19.65;11.10;;;15.80;99.90;;;;;;5080164;28;20028;-57
2022/09/04 06:31:01;;;;;;;21.40;11.32;;;15.90;99.90;;;;;;5077019;28;20066;-56
2022/09/04 06:33:55;;;;;;;20.25;11.35;;;16.00;99.90;;;;;;5080889;28;20024;-55
2022/09/04 06:36:53;;;;;;;19.02;11.60;;;16.10;99.90;;;;;;5079252;28;20485;-56
2022/09/04 06:39:36;;;;;;;21.60;11.20;;;16.10;99.90;;;;;;5085171;28;20045;-53
2022/09/04 06:42:14;;;;;;;21.02;11.68;;;16.20;99.90;;;;;;5081108;28;20043;-53
2022/09/04 06:45:09;;;;;;;19.45;10.48;;;16.20;99.90;;;;;;5083632;28;20094;-55
2022/09/04 06:47:51;;;;;;;22.42;11.80;;;16.30;99.90;;;;;;5083571;28;20028;-56
2022/09/04 06:50:43;;;;;;;18.92;12.13;;;16.40;99.90;;;;;;5082266;28;20103;-57
2022/09/04 06:53:26;;;;;;;21.27;11.65;;;16.40;99.90;;;;;;5086692;28;20111;-56
2022/09/04 06:56:10;;;;;;;22.20;12.27;;;16.50;99.90;;;;;;5080941;28;20394;-56
2022/09/04 06:58:56;;;;;;;26.40;13.30;;;16.50;99.90;;;;;;5083399;28;20650;-54
2022/09/04 07:01:30;;;;;;;19.60;11.55;;;16.60;99.90;;;;;;5084089;28;20044;-56
2022/09/04 07:04:22;;;;;;;22.20;12.80;;;16.70;99.90;;;;;;5084598;28;21978;-54
2022/09/04 07:07:06;;;;;;;16.50;10.65;;;16.70;99.90;;;;;;5081842;28;20553;-55
2022/09/04 07:09:40;;;;;;;20.05;12.25;;;16.80;99.90;;;;;;5086021;28;20032;-54
2022/09/04 07:12:21;;;;;;;21.83;12.77;;;16.90;99.90;;;;;;5079689;28;20032;-56
2022/09/04 07:14:58;;;;;;;24.98;14.32;;;17.00;99.90;;;;;;5079784;28;20115;-56
2022/09/04 07:17:33;;;;;;;17.73;10.63;;;17.00;99.90;;;;;;5082847;28;20030;-55
2022/09/04 07:20:33;;;;;;;17.05;10.70;;;17.00;99.90;;;;;;5084235;28;20016;-56
2022/09/04 07:23:26;;;;;;;17.95;11.27;;;17.10;99.90;;;;;;5084761;28;20447;-55
2022/09/04 07:26:16;;;;;;;22.15;11.77;;;17.20;99.90;;;;;;5080659;28;20024;-55
2022/09/04 07:29:01;;;;;;;18.27;11.60;;;17.20;99.90;;;;;;5081653;28;20077;-57
2022/09/04 07:31:54;;;;;;;17.33;10.73;;;17.30;99.90;;;;;;5081620;28;20036;-56
2022/09/04 07:34:43;;;;;;;15.27;10.25;;;17.40;99.90;;;;;;5081859;28;20125;-56
2022/09/04 07:37:40;;;;;;;18.30;11.27;;;17.50;99.90;;;;;;5078602;28;20390;-56
2022/09/04 07:40:14;;;;;;;18.73;11.20;;;17.60;99.90;;;;;;5079411;28;20069;-55
2022/09/04 07:43:38;;;;;;;20.23;11.15;;;17.70;99.90;;;;;;5084216;28;20028;-55
2022/09/04 07:46:15;;;;;;;20.35;10.52;;;17.80;99.90;;;;;;5005294;28;20034;-56
2022/09/04 07:49:08;;;;;;;16.55;9.20;;;17.90;99.90;;;;;;4997957;28;21710;-56
2022/09/04 07:51:44;;;;;;;17.55;10.15;;;18.00;99.90;;;;;;5069336;28;20039;-56
2022/09/04 07:54:28;;;;;;;12.65;8.77;;;18.00;99.90;;;;;;5081737;28;20482;-56
2022/09/04 07:57:20;;;;;;;12.10;8.53;;;18.20;99.90;;;;;;5079659;28;20486;-55
2022/09/04 08:00:00;;;;;;;9.93;6.65;;;18.30;99.90;;;;;;5080562;28;20093;-57
2022/09/04 08:02:50;;;;;;;11.68;6.40;;;18.40;99.90;;;;;;5080073;28;20032;-56
2022/09/04 08:05:34;;;;;;;12.73;7.38;;;18.40;99.90;;;;;;5075720;28;20375;-57
2022/09/04 08:08:21;;;;;;;17.95;8.77;;;18.50;99.90;;;;;;5081435;28;20088;-56
2022/09/04 08:11:04;;;;;;;15.27;8.10;;;18.60;99.90;;;;;;5075690;28;20164;-57
2022/09/04 08:13:52;;;;;;;15.57;8.05;;;18.70;99.90;;;;;;5081642;28;20046;-57
2022/09/04 08:16:30;;;;;;;12.00;7.90;;;18.80;99.90;;;;;;5079171;28;20027;-57
2022/09/04 08:19:09;;;;;;;9.60;6.82;;;18.90;99.90;;;;;;5084745;28;20482;-55
2022/09/04 08:21:39;;;;;;;16.88;8.13;;;19.00;99.90;;;;;;5078416;28;20032;-58
2022/09/04 08:25:00;;;;;;;16.55;8.13;;;19.00;99.90;;;;;;5083687;28;20042;-57
2022/09/04 08:27:37;;;;;;;8.90;6.13;;;19.20;99.90;;;;;;5005580;28;20117;-57
2022/09/04 08:30:08;;;;;;;19.40;8.02;;;19.30;99.90;;;;;;5006562;28;20480;-58
2022/09/04 08:33:10;;;;;;;10.35;6.55;;;19.50;99.90;;;;;;5056242;28;20104;-58
2022/09/04 08:36:06;;;;;;;10.80;6.95;;;19.60;99.90;;;;;;5083997;28;20481;-55
2022/09/04 08:38:56;;;;;;;10.88;7.13;;;19.70;99.90;;;;;;5082461;28;20040;-58
2022/09/04 08:41:40;;;;;;;13.10;7.00;;;19.80;99.90;;;;;;5084279;28;21059;-58
2022/09/04 08:44:25;;;;;;;10.35;6.80;;;19.90;99.90;;;;;;5084030;28;20042;-57
2022/09/04 08:47:34;;;;;;;8.25;5.85;;;20.00;99.90;;;;;;5086017;28;20389;-57
2022/09/04 08:50:28;;;;;;;6.97;4.95;;;20.10;99.90;;;;;;5084961;28;20457;-55
2022/09/04 08:53:12;;;;;;;8.15;5.00;;;20.20;99.90;;;;;;5082532;28;20393;-58
2022/09/04 08:56:06;;;;;;;9.70;5.47;;;20.40;99.90;;;;;;5080569;28;20379;-58
2022/09/04 08:58:58;;;;;;;;;;;20.50;99.90;;;;;;5054955;28;20119;-57
2022/09/04 09:01:42;;;;;;;11.10;5.75;;;20.60;99.90;;;;;;5081427;22;20022;-63
2022/09/04 09:04:37;;;;;;;6.15;4.68;;;20.70;99.90;;;;;;5091232;28;20073;-62
2022/09/04 09:07:06;;;;;;;8.45;5.32;;;20.90;99.90;;;;;;5091730;28;20536;-62
2022/09/04 09:09:53;;;;;;;7.18;5.05;;;21.00;99.90;;;;;;5089450;28;20097;-62
2022/09/04 09:12:39;;;;;;;7.10;4.85;;;21.10;99.90;;;;;;5096959;28;20032;-63
2022/09/04 09:15:10;;;;;;;9.80;5.88;;;21.30;99.90;;;;;;5091888;28;20047;-62
2022/09/04 09:17:59;;;;;;;10.25;5.43;;;21.40;99.90;;;;;;5093940;28;20022;-63
2022/09/04 09:20:38;;;;;;;9.82;5.40;;;21.60;99.90;;;;;;5098770;28;20020;-62
2022/09/04 09:23:40;;;;;;;10.32;5.57;;;21.70;99.90;;;;;;5093285;28;20027;-62
2022/09/04 09:26:27;;;;;;;9.50;4.93;;;21.80;99.90;;;;;;5056358;28;20032;-61
2022/09/04 09:28:55;;;;;;;10.35;4.60;;;21.80;99.90;;;;;;5114361;27;20020;-61
2022/09/04 09:32:06;;;;;;;4.38;3.70;;;21.90;99.90;;;;;;5085431;28;20397;-62
2022/09/04 09:35:00;;;;;;;9.32;6.32;;;22.10;99.90;;;;;;5094743;28;20505;-62
2022/09/04 09:37:55;;;;;;;6.70;4.25;;;22.30;99.90;;;;;;5098065;28;20111;-62
2022/09/04 09:40:28;;;;;;;;;;;22.50;99.90;;;;;;5059913;28;20032;-62
2022/09/04 09:43:11;;;;;;;5.38;3.58;;;22.70;99.90;;;;;;5092683;28;19994;-62
2022/09/04 09:46:01;;;;;;;7.45;4.13;;;22.90;99.90;;;;;;5085819;28;20032;-62
2022/09/04 09:49:04;;;;;;;6.63;3.83;;;23.10;99.90;;;;;;5092871;28;20067;-61
2022/09/04 09:52:03;;;;;;;6.22;3.78;;;23.30;99.90;;;;;;5089566;28;20034;-63
2022/09/04 09:54:45;;;;;;;5.05;2.90;;;23.40;99.90;;;;;;5092550;28;20032;-62
2022/09/04 09:57:32;;;;;;;6.05;3.85;;;23.60;99.90;;;;;;5086645;28;20028;-62
2022/09/04 10:00:06;;;;;;;5.20;3.65;;;23.90;99.90;;;;;;5086983;28;20028;-62
2022/09/04 10:02:49;;;;;;;5.50;2.92;;;24.20;99.90;;;;;;5083185;28;20035;-63
2022/09/04 10:05:37;;;;;;;8.65;3.85;;;24.40;99.90;;;;;;5082598;28;20383;-62
2022/09/04 10:08:11;;;;;;;8.48;3.92;;;24.70;99.90;;;;;;5092784;28;20704;-62
2022/09/04 10:11:07;;;;;;;8.63;4.53;;;24.70;99.90;;;;;;5085674;28;20039;-62
2022/09/04 10:13:50;;;;;;;6.50;2.80;;;24.80;99.90;;;;;;5083394;28;20027;-59
2022/09/04 10:16:41;;;;;;;7.55;3.40;;;25.00;99.90;;;;;;5090182;28;20415;-61
2022/09/04 10:19:16;;;;;;;8.82;3.00;;;25.00;99.90;;;;;;5088828;28;20868;-62
2022/09/04 10:22:23;;;;;;;4.07;2.70;;;25.30;99.90;;;;;;5087048;28;20028;-62
2022/09/04 10:25:31;;;;;;;5.68;2.95;;;25.60;99.90;;;;;;5089246;28;20029;-63
2022/09/04 10:28:27;;;;;;;5.65;3.53;;;25.80;99.90;;;;;;5084733;28;20032;-61
2022/09/04 10:31:25;;;;;;;7.05;3.33;;;26.10;99.90;;;;;;5085661;28;20028;-62
2022/09/04 10:33:57;;;;;;;3.60;2.88;;;26.40;99.90;;;;;;5086700;28;20035;-60
2022/09/04 10:36:47;;;;;;;7.68;4.55;;;26.60;99.90;;;;;;5078356;28;20036;-62
2022/09/04 10:43:12;;;;;;;5.03;2.50;;;26.50;99.90;;;;;;5043855;28;20068;-61
2022/09/04 10:45:45;;;;;;;4.35;2.83;;;26.20;99.90;;;;;;5087179;28;20390;-62
2022/09/04 10:48:38;;;;;;;4.32;2.22;;;26.10;99.90;;;;;;5086357;28;20030;-61
2022/09/04 10:51:15;;;;;;;4.53;2.05;;;26.20;99.90;;;;;;5091584;28;20132;-62
2022/09/04 10:54:31;;;;;;;7.93;2.25;;;26.30;99.90;;;;;;5091127;28;20033;-61
2022/09/04 10:57:17;;;;;;;3.70;2.83;;;26.50;99.90;;;;;;5049709;28;20619;-60
2022/09/04 10:59:51;;;;;;;4.57;2.67;;;26.70;99.90;;;;;;5079872;28;20433;-62
2022/09/04 11:02:21;;;;;;;;;;;26.50;99.90;;;;;;5088313;28;20309;-61
2022/09/04 11:05:16;;;;;;;3.47;1.95;;;26.20;99.90;;;;;;5085666;28;19911;-61
2022/09/04 11:08:08;;;;;;;3.90;2.28;;;26.20;99.90;;;;;;5084763;28;20050;-62
2022/09/04 11:11:16;;;;;;;6.07;2.25;;;26.30;99.90;;;;;;5082892;28;20028;-61
2022/09/04 11:14:31;;;;;;;2.67;1.98;;;26.50;99.90;;;;;;5003489;28;20092;-61
2022/09/04 11:17:18;;;;;;;3.33;2.10;;;26.70;99.90;;;;;;4979691;28;20431;-60
2022/09/04 11:20:17;;;;;;;12.32;3.60;;;26.90;99.90;;;;;;4981581;28;20117;-62
2022/09/04 11:22:58;;;;;;;3.45;2.28;;;27.10;99.90;;;;;;5065452;28;20054;-62
2022/09/04 11:25:50;;;;;;;5.80;2.13;;;27.20;99.90;;;;;;5082661;28;20103;-57
2022/09/04 11:28:39;;;;;;;3.20;1.50;;;27.40;99.90;;;;;;5081509;28;20035;-62
2022/09/04 11:31:25;;;;;;;4.47;1.70;;;27.80;99.90;;;;;;5080308;28;20028;-61
2022/09/04 11:34:18;;;;;;;2.17;1.50;;;28.10;99.90;;;;;;5083240;28;20016;-62
2022/09/04 11:37:08;;;;;;;6.15;2.28;;;28.30;99.90;;;;;;5086566;28;20031;-62
2022/09/04 11:40:05;;;;;;;19.90;3.63;;;28.40;99.90;;;;;;5090667;28;20046;-62
2022/09/04 11:42:32;;;;;;;2.13;1.50;;;28.60;99.90;;;;;;5082910;28;20073;-63
2022/09/04 11:45:36;;;;;;;3.00;1.50;;;28.60;99.90;;;;;;5081840;28;20020;-62
2022/09/04 11:48:20;;;;;;;3.83;1.40;;;28.90;99.90;;;;;;5086446;28;20080;-62
2022/09/04 11:51:35;;;;;;;9.67;2.37;;;29.20;99.90;;;;;;5080239;28;20334;-62
2022/09/04 11:54:42;;;;;;;13.30;2.08;;;29.50;99.90;;;;;;5080158;28;20487;-63
2022/09/04 11:57:27;;;;;;;3.35;1.83;;;29.20;99.90;;;;;;5080930;28;20449;-62
2022/09/04 12:00:06;;;;;;;3.25;2.00;;;28.20;99.90;;;;;;5085442;28;20024;-62
2022/09/04 12:03:00;;;;;;;1.58;1.33;;;27.90;99.90;;;;;;5093483;28;20024;-62
2022/09/04 12:05:45;;;;;;;2.65;1.30;;;27.50;99.90;;;;;;5083430;28;20165;-62
2022/09/04 12:08:46;;;;;;;6.55;1.63;;;27.20;99.90;;;;;;5093077;28;20039;-61
2022/09/04 12:11:46;;;;;;;1.45;1.33;;;27.00;99.90;;;;;;5074230;28;20048;-61
2022/09/04 12:14:55;;;;;;;3.72;1.50;;;27.00;99.90;;;;;;5062784;28;20040;-59
2022/09/04 12:17:55;;;;;;;3.92;1.20;;;27.80;99.90;;;;;;5088413;28;20028;-61
2022/09/04 12:20:23;;;;;;;2.83;1.52;;;28.40;99.90;;;;;;5088344;28;20103;-62
2022/09/04 12:23:10;;;;;;;3.38;1.50;;;28.80;99.90;;;;;;5092638;28;20546;-62
2022/09/04 12:26:07;;;;;;;1.50;1.30;;;28.80;99.90;;;;;;5082103;28;20042;-61
2022/09/04 12:28:36;;;;;;;2.88;1.55;;;28.90;99.90;;;;;;5082471;28;20307;-62
2022/09/04 12:31:36;;;;;;;2.17;1.50;;;29.00;99.90;;;;;;5085690;28;20401;-63
2022/09/04 12:34:13;;;;;;;3.83;1.15;;;29.30;99.90;;;;;;5089320;28;20135;-59
2022/09/04 12:37:18;;;;;;;2.78;1.08;;;29.20;99.90;;;;;;5092505;28;20024;-61
2022/09/04 12:39:56;;;;;;;4.20;1.60;;;29.00;99.90;;;;;;5087718;28;20028;-61
2022/09/04 12:42:31;;;;;;;1.83;1.23;;;29.10;99.90;;;;;;5087172;28;20509;-61
2022/09/04 12:45:08;;;;;;;2.33;1.50;;;29.60;99.90;;;;;;5092416;28;20343;-62
2022/09/04 12:48:10;;;;;;;2.28;1.13;;;29.80;99.90;;;;;;5095149;28;20019;-62
2022/09/04 12:50:56;;;;;;;4.15;1.60;;;30.40;99.90;;;;;;5091758;28;20102;-62
2022/09/04 12:53:49;;;;;;;2.25;1.10;;;30.50;99.90;;;;;;5076374;28;20044;-63
2022/09/04 12:56:21;;;;;;;2.95;1.13;;;30.70;99.90;;;;;;5076434;28;20043;-63
2022/09/04 12:59:00;;;;;;;2.90;1.05;;;31.20;99.90;;;;;;5067094;28;20125;-62
2022/09/04 13:01:44;;;;;;;1.30;1.00;;;31.00;99.90;;;;;;5065663;28;20584;-60
2022/09/04 13:04:16;;;;;;;3.17;1.08;;;31.00;99.90;;;;;;5069248;28;20035;-61
2022/09/04 13:07:05;;;;;;;3.53;1.10;;;31.10;99.90;;;;;;5065798;28;20100;-60
2022/09/04 13:09:46;;;;;;;1.98;1.20;;;30.80;99.90;;;;;;5083059;28;20035;-63
2022/09/04 13:12:18;;;;;;;3.22;1.30;;;30.50;99.90;;;;;;5078451;28;20028;-61
2022/09/04 13:14:56;;;;;;;7.18;1.48;;;30.30;99.90;;;;;;5087855;28;20600;-63
2022/09/04 13:17:47;;;;;;;4.68;1.20;;;29.90;99.90;;;;;;5084249;28;20032;-63
2022/09/04 13:20:28;;;;;;;2.60;1.20;;;30.00;99.90;;;;;;5086371;28;20031;-62
2022/09/04 13:23:03;;;;;;;1.45;1.20;;;30.50;99.90;;;;;;5086207;28;20528;-62
2022/09/04 13:25:41;;;;;;;4.50;1.00;;;31.00;99.90;;;;;;5086583;28;20039;-61
2022/09/04 13:28:25;;;;;;;1.10;1.00;;;31.20;99.90;;;;;;5086675;28;20038;-62
2022/09/04 13:31:04;;;;;;;;;;;30.40;99.90;;;;;;5090703;28;20111;-61
2022/09/04 13:33:57;;;;;;;3.97;1.40;;;30.80;99.90;;;;;;5094609;28;20014;-61
2022/09/04 13:36:48;;;;;;;2.83;1.27;;;30.60;99.90;;;;;;5094158;28;20143;-60
2022/09/04 13:39:48;;;;;;;2.25;1.27;;;30.10;99.90;;;;;;5094176;28;20020;-61
2022/09/04 13:42:55;;;;;;;1.60;1.00;;;30.30;99.90;;;;;;5085251;28;20048;-62
2022/09/04 13:45:28;;;;;;;1.27;1.00;;;30.70;99.90;;;;;;5090389;28;20074;-61
2022/09/04 13:48:02;;;;;;;1.38;1.02;;;31.10;99.90;;;;;;5086681;28;20027;-62
2022/09/04 13:50:38;;;;;;;1.35;1.10;;;31.00;99.90;;;;;;5092237;28;20063;-57
2022/09/04 13:53:15;;;;;;;1.17;1.08;;;31.30;99.90;;;;;;5091157;28;20024;-61
2022/09/04 13:55:48;;;;;;;1.95;1.05;;;31.10;99.70;;;;;;5093783;28;20027;-61
2022/09/04 13:58:22;;;;;;;2.30;1.20;;;30.90;99.30;;;;;;5088053;28;20510;-63
2022/09/04 14:00:59;;;;;;;2.88;1.50;;;30.70;99.90;;;;;;5088918;28;20058;-61
2022/09/04 14:03:56;;;;;;;1.75;1.00;;;30.70;99.90;;;;;;5095866;28;20076;-61
2022/09/04 14:06:25;;;;;;;1.88;1.13;;;30.50;99.90;;;;;;5091529;28;20027;-62
2022/09/04 14:08:57;;;;;;;2.25;1.13;;;30.30;99.90;;;;;;5093604;28;20103;-61
2022/09/04 14:11:36;;;;;;;0.98;0.90;;;30.40;99.90;;;;;;5085989;28;20058;-61
2022/09/04 14:14:31;;;;;;;4.10;1.10;;;30.40;99.80;;;;;;5090137;28;20024;-60
2022/09/04 14:16:58;;;;;;;2.45;1.52;;;30.40;99.90;;;;;;5089852;28;20028;-60
2022/09/04 14:20:07;;;;;;;2.05;1.33;;;30.20;99.90;;;;;;5085952;28;20065;-62
2022/09/04 14:22:51;;;;;;;1.90;1.15;;;30.00;99.90;;;;;;5086821;28;20031;-62